Time;durP1;ratioP1;P1;durP2;ratioP2;P2;SDS_P1;SDS_P2;PMS_P1;PMS_P2;Temp;Humidity;BMP_temperature;BMP_pressure;BME280_temperature;BME280_humidity;BME280_pressure;Samples;Min_cycle;Max_cycle;Signal;HPM_P1;HPM_P2
2022/02/08 00:00:29;;;;;;;;;;;;;;;5.66;78.37;99915.16;1721670;81;20229;-82
2022/02/08 00:02:56;;;;;;;;;;;;;;;5.64;78.71;99923.16;1744035;80;21137;-83
2022/02/08 00:05:23;;;;;;;;;;;;;;;5.72;78.51;99942.97;1757436;79;20219;-82
2022/02/08 00:07:52;;;;;;;;;;;;;;;5.61;79.05;99941.75;1758128;79;20221;-82
2022/02/08 00:10:17;;;;;;;;;;;;;;;5.48;80.68;99939.31;1752275;80;20137;-83
2022/02/08 00:12:42;;;;;;;;;;;;;;;5.45;80.96;99936.12;1754810;80;20230;-83
2022/02/08 00:15:08;;;;;;;;;;;;;;;5.39;81.43;99941.38;1755779;79;21316;-83
2022/02/08 00:17:34;;;;;;;;;;;;;;;5.44;81.53;99947.55;1752733;79;20183;-83
2022/02/08 00:20:00;;;;;;;;;;;;;;;5.47;81.73;99952.53;1754496;79;20514;-83
2022/02/08 00:22:27;;;;;;;;;;;;;;;5.43;82.12;99947.22;1760120;79;20124;-83
2022/02/08 00:24:52;;;;;;;;;;;;;;;5.45;82.22;99953.14;1751887;79;21129;-83
2022/02/08 00:27:18;;;;;;;;;;;;;;;5.64;81.33;99954.59;1757515;81;21066;-83
2022/02/08 00:29:43;;;;;;;;;;;;;;;5.57;81.50;99967.84;1755186;81;20224;-83
2022/02/08 00:32:09;;;;;;;;;;;;;;;5.44;82.35;99967.19;1763068;80;20160;-83
2022/02/08 00:34:35;;;;;;;;;;;;;;;5.38;82.68;99978.53;1755017;79;20311;-83
2022/02/08 00:37:01;;;;;;;;;;;;;;;5.72;81.59;99974.91;1751381;80;20662;-83
2022/02/08 00:39:29;;;;;;;;;;;;;;;5.53;81.71;99971.20;1758132;80;21124;-83
2022/02/08 00:41:54;;;;;;;;;;;;;;;5.64;81.48;99974.69;1761373;79;20160;-84
2022/02/08 00:44:26;;;;;;;;;;;;;;;5.73;81.22;99978.70;1758357;79;20156;-83
2022/02/08 00:47:11;;;;;;;;;;;;;;;5.60;81.68;99974.12;1747979;80;20200;-83
2022/02/08 00:49:29;;;;;;;;;;;;;;;5.42;82.42;99979.59;1755728;79;20230;-83
2022/02/08 00:51:57;;;;;;;;;;;;;;;5.38;82.74;99977.71;1760107;79;20213;-82
2022/02/08 00:54:19;;;;;;;;;;;;;;;5.50;82.29;99985.02;1756063;79;20217;-82
2022/02/08 00:56:44;;;;;;;;;;;;;;;5.37;82.89;99984.72;1755286;81;20237;-82
2022/02/08 00:59:10;;;;;;;;;;;;;;;5.68;82.04;99984.79;1760744;79;20179;-82
2022/02/08 01:01:38;;;;;;;;;;;;;;;5.57;81.83;99984.38;1757279;79;20156;-82
2022/02/08 01:04:05;;;;;;;;;;;;;;;5.54;82.04;99983.81;1780714;79;21519;-84
2022/02/08 01:06:31;;;;;;;;;;;;;;;5.74;81.51;99976.91;1783966;78;20129;-84
2022/02/08 01:09:12;;;;;;;;;;;;;;;5.50;82.17;99975.84;1786690;79;20159;-84
2022/02/08 01:11:32;;;;;;;;;;;;;;;5.59;81.94;99986.86;1784998;79;20187;-83
2022/02/08 01:13:59;;;;;;;;;;;;;;;5.63;81.74;99983.53;1784472;79;20476;-82
2022/02/08 01:16:24;;;;;;;;;;;;;;;5.79;81.38;99988.31;1785652;78;21062;-84
2022/02/08 01:18:54;;;;;;;;;;;;;;;5.54;82.25;99991.66;1786391;78;20251;-82
2022/02/08 01:21:17;;;;;;;;;;;;;;;5.63;82.17;99986.97;1787000;79;20413;-83
2022/02/08 01:23:43;;;;;;;;;;;;;;;5.59;82.09;99992.11;1784143;79;20150;-86
2022/02/08 01:26:13;;;;;;;;;;;;;;;5.65;82.20;100009.94;1786523;78;20175;-82
2022/02/08 01:28:45;;;;;;;;;;;;;;;5.50;82.68;100010.74;1782464;78;20181;-82
2022/02/08 01:31:07;;;;;;;;;;;;;;;5.68;81.98;100007.05;1784322;79;21344;-82
2022/02/08 01:38:38;;;;;;;;;;;;;;;5.34;83.57;100020.31;1773401;79;20178;-83
2022/02/08 01:41:29;;;;;;;;;;;;;;;5.52;82.95;100031.08;1790606;78;21351;-83
2022/02/08 01:46:29;;;;;;;;;;;;;;;5.47;83.10;100038.95;1784587;78;20489;-83
2022/02/08 01:51:11;;;;;;;;;;;;;;;5.35;83.80;100037.70;1785147;79;20616;-83
2022/02/08 01:53:37;;;;;;;;;;;;;;;5.43;83.54;100048.04;1784445;78;22041;-83
2022/02/08 01:56:03;;;;;;;;;;;;;;;5.56;82.96;100053.91;1783053;79;20156;-83
2022/02/08 01:58:28;;;;;;;;;;;;;;;5.51;83.06;100060.02;1789066;78;20175;-83
2022/02/08 02:00:54;;;;;;;;;;;;;;;5.52;83.06;100052.52;1784773;78;20663;-83
2022/02/08 02:03:20;;;;;;;;;;;;;;;5.59;82.62;100052.35;1787250;78;20204;-82
2022/02/08 02:05:46;;;;;;;;;;;;;;;5.64;82.44;100066.38;1789717;78;21533;-82
2022/02/08 02:08:11;;;;;;;;;;;;;;;5.57;82.89;100060.83;1790698;79;20258;-81
2022/02/08 02:10:37;;;;;;;;;;;;;;;5.56;82.66;100060.46;1791124;79;20137;-81
2022/02/08 02:13:08;;;;;;;;;;;;;;;5.52;82.91;100065.62;1796940;78;20150;-83
2022/02/08 02:15:33;;;;;;;;;;;;;;;5.62;82.64;100067.00;1796018;78;20143;-82
2022/02/08 02:17:58;;;;;;;;;;;;;;;5.70;82.14;100065.42;1792289;79;21138;-82
2022/02/08 02:20:24;;;;;;;;;;;;;;;5.65;82.50;100081.97;1796172;78;20141;-82
2022/02/08 02:22:50;;;;;;;;;;;;;;;5.57;82.82;100081.78;1803075;78;21522;-84
2022/02/08 02:25:24;;;;;;;;;;;;;;;5.71;82.09;100090.64;1799055;79;20140;-83
2022/02/08 02:27:50;;;;;;;;;;;;;;;5.89;81.28;100092.72;1795694;78;20127;-83
2022/02/08 02:30:16;;;;;;;;;;;;;;;5.77;81.96;100108.14;1796091;78;21956;-83
2022/02/08 02:32:42;;;;;;;;;;;;;;;5.96;81.26;100093.86;1793641;78;20175;-82
2022/02/08 02:35:08;;;;;;;;;;;;;;;5.68;82.39;100097.93;1794742;78;20614;-83
2022/02/08 02:37:33;;;;;;;;;;;;;;;5.80;81.46;100107.41;1792489;78;20367;-83
2022/02/08 02:39:59;;;;;;;;;;;;;;;5.85;81.56;100105.72;1799156;78;20191;-82
2022/02/08 02:42:26;;;;;;;;;;;;;;;5.75;82.00;100113.02;1790017;78;21122;-83
2022/02/08 02:44:52;;;;;;;;;;;;;;;5.67;82.22;100112.83;1793211;79;20141;-82
2022/02/08 02:47:17;;;;;;;;;;;;;;;5.62;82.50;100127.25;1794927;78;20450;-83
2022/02/08 02:49:43;;;;;;;;;;;;;;;5.85;81.84;100135.86;1796677;79;20790;-83
2022/02/08 02:52:09;;;;;;;;;;;;;;;5.66;82.16;100143.91;1794469;78;20130;-83
2022/02/08 02:54:34;;;;;;;;;;;;;;;5.68;82.29;100144.59;1791489;79;20991;-82
2022/02/08 02:57:01;;;;;;;;;;;;;;;5.88;81.52;100136.91;1796908;79;20165;-83
2022/02/08 02:59:29;;;;;;;;;;;;;;;5.91;81.36;100131.42;1791235;79;20504;-82
2022/02/08 03:04:33;;;;;;;;;;;;;;;5.94;80.80;100138.54;1782173;79;20096;-82
2022/02/08 03:20:34;;;;;;;;;;;;;;;6.01;80.56;100169.06;1734180;82;20212;-82
2022/02/08 03:22:59;;;;;;;;;;;;;;;6.01;80.16;100168.21;1730262;81;20526;-82
2022/02/08 03:25:25;;;;;;;;;;;;;;;5.97;80.31;100174.20;1749500;79;20133;-82
2022/02/08 03:27:51;;;;;;;;;;;;;;;5.93;80.56;100179.29;1785715;79;20165;-82
2022/02/08 03:30:16;;;;;;;;;;;;;;;5.80;80.71;100185.20;1781678;78;20159;-82
2022/02/08 03:32:42;;;;;;;;;;;;;;;5.82;80.93;100184.58;1783464;79;21004;-82
2022/02/08 03:35:09;;;;;;;;;;;;;;;5.81;80.80;100206.49;1781549;79;20169;-82
2022/02/08 03:37:35;;;;;;;;;;;;;;;5.92;80.35;100205.98;1779451;79;20176;-82
2022/02/08 03:40:13;;;;;;;;;;;;;;;6.18;79.54;100198.28;1783198;78;20155;-82
2022/02/08 03:42:38;;;;;;;;;;;;;;;5.87;80.63;100212.09;1778416;79;20430;-82
2022/02/08 03:45:04;;;;;;;;;;;;;;;5.97;80.02;100217.44;1777737;79;20669;-82
2022/02/08 03:47:31;;;;;;;;;;;;;;;5.86;80.21;100222.70;1786075;79;20180;-83
2022/02/08 03:49:57;;;;;;;;;;;;;;;5.75;80.39;100237.48;1786697;78;20118;-82
2022/02/08 03:52:23;;;;;;;;;;;;;;;5.88;80.08;100228.64;1783127;79;20202;-82
2022/02/08 03:54:49;;;;;;;;;;;;;;;5.66;80.78;100236.91;1783191;79;20113;-82
2022/02/08 03:57:14;;;;;;;;;;;;;;;5.99;79.80;100226.00;1781504;79;21142;-82
2022/02/08 03:59:40;;;;;;;;;;;;;;;6.23;78.91;100241.99;1783241;78;20244;-82
2022/02/08 04:02:27;;;;;;;;;;;;;;;5.99;79.31;100239.11;1785759;78;20117;-82
2022/02/08 04:07:16;;;;;;;;;;;;;;;5.97;79.70;100252.83;1785537;79;20132;-83
2022/02/08 04:09:38;;;;;;;;;;;;;;;6.13;79.08;100248.97;1778076;78;20736;-82
2022/02/08 04:12:10;;;;;;;;;;;;;;;6.14;78.81;100259.78;1777634;78;20129;-84
2022/02/08 04:17:21;;;;;;;;;;;;;;;5.98;79.39;100270.23;1776142;79;20144;-83
2022/02/08 04:19:34;;;;;;;;;;;;;;;6.01;79.63;100273.92;1776849;79;20199;-83
2022/02/08 04:41:00;;;;;;;;;;;;;;;5.97;78.45;100300.02;1779154;79;20116;-83
2022/02/08 04:46:40;;;;;;;;;;;;;;;5.90;77.76;100300.10;1782793;79;20489;-82
2022/02/08 04:48:38;;;;;;;;;;;;;;;5.91;76.87;100304.40;1767060;78;20151;-83
2022/02/08 04:51:03;;;;;;;;;;;;;;;6.07;75.83;100304.85;1780506;78;20159;-82
2022/02/08 04:53:31;;;;;;;;;;;;;;;5.91;74.84;100316.20;1782863;78;20202;-81
2022/02/08 04:56:00;;;;;;;;;;;;;;;6.19;73.81;100310.09;1780026;79;20569;-80
2022/02/08 04:58:35;;;;;;;;;;;;;;;6.15;73.41;100317.84;1777283;78;20167;-82
2022/02/08 05:44:05;;;;;;;;;;;;;;;5.99;78.05;100361.00;1783786;78;20122;-83
2022/02/08 05:49:02;;;;;;;;;;;;;;;6.05;78.11;100374.94;1780028;79;20210;-82
2022/02/08 05:51:22;;;;;;;;;;;;;;;5.90;78.24;100374.80;1787916;77;20169;-82
2022/02/08 05:53:46;;;;;;;;;;;;;;;5.84;78.72;100366.11;1779916;79;20178;-82
2022/02/08 05:56:13;;;;;;;;;;;;;;;5.99;78.17;100371.48;1791612;78;20189;-82
2022/02/08 05:58:41;;;;;;;;;;;;;;;5.88;78.47;100377.55;1785081;78;20207;-82
2022/02/08 06:01:07;;;;;;;;;;;;;;;5.93;78.30;100373.25;1784050;78;20186;-82
2022/02/08 06:03:33;;;;;;;;;;;;;;;5.85;78.46;100375.65;1778154;79;20196;-82
2022/02/08 06:05:58;;;;;;;;;;;;;;;5.82;78.40;100384.57;1786643;79;21236;-82
2022/02/08 06:08:24;;;;;;;;;;;;;;;5.79;78.72;100378.74;1785508;78;20149;-82
2022/02/08 06:10:54;;;;;;;;;;;;;;;5.78;78.35;100381.85;1785940;79;20170;-82
2022/02/08 06:13:19;;;;;;;;;;;;;;;5.68;78.64;100380.40;1782944;79;20193;-82
2022/02/08 06:15:46;;;;;;;;;;;;;;;5.75;78.32;100386.84;1785405;79;20128;-83
2022/02/08 06:18:11;;;;;;;;;;;;;;;5.54;78.98;100389.32;1779869;79;21281;-83
2022/02/08 06:20:37;;;;;;;;;;;;;;;5.49;79.36;100399.33;1781474;78;20134;-83
2022/02/08 06:23:03;;;;;;;;;;;;;;;5.64;78.50;100399.95;1782072;79;20465;-83
2022/02/08 06:25:29;;;;;;;;;;;;;;;5.35;79.40;100397.75;1787680;79;20202;-83
2022/02/08 06:27:54;;;;;;;;;;;;;;;5.44;79.34;100415.02;1782553;78;20482;-82
2022/02/08 06:30:22;;;;;;;;;;;;;;;5.58;79.02;100400.42;1785387;79;21129;-83
2022/02/08 06:32:49;;;;;;;;;;;;;;;5.46;79.43;100403.98;1786714;79;20245;-82
2022/02/08 06:35:20;;;;;;;;;;;;;;;5.44;79.72;100416.33;1787342;79;20235;-82
2022/02/08 06:37:42;;;;;;;;;;;;;;;5.58;79.09;100414.83;1780259;79;20159;-82
2022/02/08 06:40:10;;;;;;;;;;;;;;;5.56;78.96;100425.88;1784003;79;20215;-83
2022/02/08 06:42:35;;;;;;;;;;;;;;;5.59;78.95;100425.64;1788717;79;21101;-84
2022/02/08 06:45:03;;;;;;;;;;;;;;;5.66;78.41;100423.41;1788378;79;20206;-84
2022/02/08 06:47:28;;;;;;;;;;;;;;;5.52;78.90;100427.08;1789691;79;20711;-83
2022/02/08 06:49:54;;;;;;;;;;;;;;;5.42;79.02;100440.50;1786983;79;20434;-82
2022/02/08 06:52:20;;;;;;;;;;;;;;;5.65;78.48;100440.07;1790031;78;20196;-81
2022/02/08 06:54:48;;;;;;;;;;;;;;;5.61;78.22;100429.00;1785327;79;21025;-81
2022/02/08 06:57:13;;;;;;;;;;;;;;;5.68;78.21;100431.49;1785030;79;20519;-83
2022/02/08 06:59:40;;;;;;;;;;;;;;;5.60;78.01;100433.87;1787016;78;20122;-82
2022/02/08 07:02:05;;;;;;;;;;;;;;;5.88;77.55;100429.13;1788088;78;20272;-82
2022/02/08 07:04:31;;;;;;;;;;;;;;;5.78;77.50;100432.09;1790837;78;20772;-82
2022/02/08 07:06:57;;;;;;;;;;;;;;;5.67;77.29;100431.16;1784628;78;21173;-84
2022/02/08 07:09:23;;;;;;;;;;;;;;;5.72;77.21;100438.66;1784027;79;20987;-82
2022/02/08 07:11:49;;;;;;;;;;;;;;;5.68;77.16;100435.42;1788768;79;20508;-83
2022/02/08 07:14:15;;;;;;;;;;;;;;;5.62;77.16;100431.96;1783907;79;20239;-83
2022/02/08 07:16:41;;;;;;;;;;;;;;;5.63;77.06;100432.33;1791572;78;20803;-82
2022/02/08 07:19:06;;;;;;;;;;;;;;;5.69;76.98;100426.63;1791131;78;21298;-83
2022/02/08 07:21:32;;;;;;;;;;;;;;;5.72;76.73;100434.25;1786634;78;20201;-82
2022/02/08 07:23:57;;;;;;;;;;;;;;;5.75;76.80;100426.15;1781588;79;20457;-83
2022/02/08 07:26:23;;;;;;;;;;;;;;;5.74;76.69;100425.78;1786603;78;20134;-83
2022/02/08 07:28:50;;;;;;;;;;;;;;;5.59;76.99;100436.13;1786609;79;20229;-83
2022/02/08 07:31:20;;;;;;;;;;;;;;;5.70;77.01;100430.92;1786122;79;21048;-84
2022/02/08 07:34:13;;;;;;;;;;;;;;;5.66;76.81;100426.86;1785577;79;20545;-82
2022/02/08 07:36:39;;;;;;;;;;;;;;;5.59;77.62;100446.60;1787046;79;20151;-82
2022/02/08 07:38:53;;;;;;;;;;;;;;;5.83;77.20;100432.59;1781598;79;20128;-83
2022/02/08 07:41:39;;;;;;;;;;;;;;;5.82;77.07;100441.41;1782361;79;20172;-83
2022/02/08 07:44:06;;;;;;;;;;;;;;;5.79;77.61;100441.64;1787943;78;20108;-84
2022/02/08 07:46:32;;;;;;;;;;;;;;;5.79;77.90;100441.64;1782239;79;20137;-84
2022/02/08 07:48:58;;;;;;;;;;;;;;;5.82;78.00;100441.41;1788577;78;20257;-83
2022/02/08 07:51:24;;;;;;;;;;;;;;;5.82;78.17;100445.33;1786556;78;20218;-83
2022/02/08 07:53:50;;;;;;;;;;;;;;;5.79;78.75;100445.57;1784323;79;20190;-83
2022/02/08 07:56:16;;;;;;;;;;;;;;;6.00;78.20;100443.95;1782474;79;21155;-83
2022/02/08 07:58:42;;;;;;;;;;;;;;;5.93;78.77;100438.78;1789092;79;20092;-81
2022/02/08 08:01:08;;;;;;;;;;;;;;;5.90;79.13;100445.11;1781597;79;20191;-82
2022/02/08 08:03:42;;;;;;;;;;;;;;;5.99;79.37;100450.13;1790683;78;20120;-84
2022/02/08 08:06:09;;;;;;;;;;;;;;;6.02;78.99;100443.34;1787849;78;20193;-84
2022/02/08 08:08:35;;;;;;;;;;;;;;;5.85;80.27;100444.61;1786916;78;21011;-82
2022/02/08 08:11:03;;;;;;;;;;;;;;;5.86;80.37;100444.16;1787094;78;20191;-83
2022/02/08 08:13:28;;;;;;;;;;;;;;;5.91;80.47;100445.94;1791017;78;20104;-83
2022/02/08 08:16:03;;;;;;;;;;;;;;;5.94;80.57;100447.01;1789328;78;20902;-82
2022/02/08 08:20:49;;;;;;;;;;;;;;;6.21;79.69;100437.48;1770598;78;20391;-83
2022/02/08 08:23:14;;;;;;;;;;;;;;;6.15;79.80;100452.87;1785653;78;20157;-82
2022/02/08 08:25:40;;;;;;;;;;;;;;;6.11;80.03;100432.13;1784750;79;20194;-83
2022/02/08 08:28:07;;;;;;;;;;;;;;;6.14;80.29;100445.95;1784287;78;20417;-83
2022/02/08 08:30:33;;;;;;;;;;;;;;;5.89;80.98;100441.30;1782440;78;20196;-82
2022/02/08 08:32:59;;;;;;;;;;;;;;;6.28;79.40;100456.20;1781029;78;21103;-83
2022/02/08 08:35:25;;;;;;;;;;;;;;;6.11;79.67;100437.37;1781576;78;20474;-83
2022/02/08 08:37:54;;;;;;;;;;;;;;;6.07;80.19;100442.98;1784592;79;20133;-85
2022/02/08 08:40:24;;;;;;;;;;;;;;;6.08;79.95;100440.23;1776688;79;20248;-83
2022/02/08 08:43:01;;;;;;;;;;;;;;;6.13;79.40;100452.16;1784078;78;20980;-82
2022/02/08 08:49:06;;;;;;;;;;;;;;;6.31;79.00;100445.48;1785191;78;20225;-84
2022/02/08 08:51:32;;;;;;;;;;;;;;;6.26;78.87;100447.61;1764539;79;20120;-84
2022/02/08 08:53:06;;;;;;;;;;;;;;;6.02;79.34;100452.52;1763429;79;20128;-83
2022/02/08 08:55:31;;;;;;;;;;;;;;;6.10;79.07;100452.74;1783612;78;20171;-84
2022/02/08 08:57:56;;;;;;;;;;;;;;;5.97;79.17;100461.22;1790272;78;21299;-84
2022/02/08 09:00:22;;;;;;;;;;;;;;;5.93;79.47;100454.50;1780820;79;20454;-82
2022/02/08 09:02:47;;;;;;;;;;;;;;;6.03;79.28;100450.26;1782808;78;20138;-83
2022/02/08 09:05:15;;;;;;;;;;;;;;;5.83;79.82;100443.08;1789052;78;20137;-83
2022/02/08 09:07:41;;;;;;;;;;;;;;;6.20;78.80;100446.77;1784747;78;20616;-84
2022/02/08 09:10:08;;;;;;;;;;;;;;;6.33;78.21;100439.63;1785183;79;21182;-82
2022/02/08 09:15:32;;;;;;;;;;;;;;;6.36;78.45;100450.36;1781416;79;20160;-82
2022/02/08 09:20:50;;;;;;;;;;;;;;;6.41;77.84;100448.20;1784613;78;20083;-82
2022/02/08 09:28:08;;;;;;;;;;;;;;;5.99;78.39;100464.55;1783851;78;20202;-84
2022/02/08 09:30:34;;;;;;;;;;;;;;;6.35;77.84;100451.30;1781031;79;20254;-82
2022/02/08 09:32:53;;;;;;;;;;;;;;;6.00;78.39;100440.02;1784964;78;20164;-82
2022/02/08 09:35:19;;;;;;;;;;;;;;;6.19;77.64;100455.62;1785689;79;20980;-82
2022/02/08 09:37:45;;;;;;;;;;;;;;;6.40;77.29;100439.50;1785754;78;20169;-81
2022/02/08 09:40:11;;;;;;;;;;;;;;;6.47;77.12;100448.53;1783139;78;20193;-82
2022/02/08 09:42:41;;;;;;;;;;;;;;;6.49;76.41;100455.45;1786898;78;20214;-82
2022/02/08 09:45:11;;;;;;;;;;;;;;;6.62;75.74;100449.59;1787240;78;20560;-82
2022/02/08 09:47:45;;;;;;;;;;;;;;;6.52;75.96;100444.72;1788915;78;20267;-81
2022/02/08 09:50:14;;;;;;;;;;;;;;;6.45;75.83;100450.45;1780436;79;20511;-82
2022/02/08 09:52:34;;;;;;;;;;;;;;;6.76;74.87;100440.13;1783845;79;20140;-82
2022/02/08 09:55:00;;;;;;;;;;;;;;;6.76;74.20;100440.13;1784146;79;20713;-82
2022/02/08 09:57:25;;;;;;;;;;;;;;;6.94;73.55;100426.45;1784801;78;20396;-81
2022/02/08 09:59:51;;;;;;;;;;;;;;;6.69;74.01;100432.88;1781731;78;22054;-83
2022/02/08 10:02:18;;;;;;;;;;;;;;;6.61;73.85;100437.42;1780956;79;20153;-83
2022/02/08 10:04:44;;;;;;;;;;;;;;;6.57;74.37;100437.30;1784384;78;20127;-81
2022/02/08 10:07:13;;;;;;;;;;;;;;;6.66;73.86;100441.81;1782269;78;20805;-83
2022/02/08 10:09:38;;;;;;;;;;;;;;;6.65;73.47;100409.50;1778776;79;20588;-83
2022/02/08 10:12:05;;;;;;;;;;;;;;;6.77;73.17;100419.95;1784686;79;21155;-83
2022/02/08 10:22:45;;;;;;;;;;;;;;;6.66;73.31;100390.64;1785436;79;20664;-83
2022/02/08 10:25:23;;;;;;;;;;;;;;;6.79;73.24;100391.31;1782241;78;20210;-81
2022/02/08 10:27:49;;;;;;;;;;;;;;;6.73;73.30;100383.13;1782767;78;20226;-84
2022/02/08 10:30:42;;;;;;;;;;;;;;;6.79;72.98;100387.38;1784162;78;20159;-82
2022/02/08 10:38:08;;;;;;;;;;;;;;;7.21;72.08;100366.03;1783749;78;20865;-83
2022/02/08 10:40:37;;;;;;;;;;;;;;;7.15;71.57;100360.34;1784693;78;20607;-82
2022/02/08 10:43:05;;;;;;;;;;;;;;;6.99;71.21;100362.56;1785738;78;20211;-83
2022/02/08 10:45:33;;;;;;;;;;;;;;;7.21;71.18;100339.77;1783377;78;20667;-83
2022/02/08 10:48:01;;;;;;;;;;;;;;;7.38;70.50;100337.88;1780656;79;20509;-82
2022/02/08 10:50:28;;;;;;;;;;;;;;;7.33;70.14;100329.53;1787607;78;22521;-83
2022/02/08 10:52:56;;;;;;;;;;;;;;;7.39;69.69;100323.75;1778812;79;20670;-83
2022/02/08 10:58:15;;;;;;;;;;;;;;;7.58;69.10;100336.63;1783690;79;20112;-81
2022/02/08 11:00:44;;;;;;;;;;;;;;;7.55;69.28;100318.86;1788379;79;20227;-81
2022/02/08 11:03:10;;;;;;;;;;;;;;;7.81;68.38;100323.63;1784024;78;20115;-83
2022/02/08 11:05:44;;;;;;;;;;;;;;;7.46;68.64;100319.65;1782781;78;20146;-82
2022/02/08 11:08:17;;;;;;;;;;;;;;;7.17;68.67;100332.63;1786640;77;20157;-82
2022/02/08 11:18:31;;;;;;;;;;;;;;;7.76;68.19;100307.93;1748977;80;20181;-83
2022/02/08 11:20:59;;;;;;;;;;;;;;;7.58;68.45;100311.66;1750088;80;20226;-83
2022/02/08 11:23:26;;;;;;;;;;;;;;;7.47;68.31;100321.32;1729347;82;20248;-83
2022/02/08 11:25:51;;;;;;;;;;;;;;;7.64;68.38;100311.13;1747060;80;20202;-82
2022/02/08 11:28:24;;;;;;;;;;;;;;;7.68;68.30;100320.42;1748921;80;20963;-83
2022/02/08 11:31:01;;;;;;;;;;;;;;;7.75;67.92;100317.59;1746655;80;20124;-83
2022/02/08 11:39:14;;;;;;;;;;;;;;;7.93;68.32;100308.59;1745473;80;20219;-82
2022/02/08 11:47:27;;;;;;;;;;;;;;;7.82;68.20;100291.13;1750099;80;20250;-79
2022/02/08 12:00:47;;;;;;;;;;;;;;;7.83;67.33;100270.91;1749694;80;20160;-82
2022/02/08 12:06:01;;;;;;;;;;;;;;;7.72;67.70;100262.20;1751974;80;20101;-80
2022/02/08 12:08:12;;;;;;;;;;;;;;;7.72;68.01;100264.83;1703832;82;20870;-81
2022/02/08 12:10:44;;;;;;;;;;;;;;;7.54;68.19;100293.53;1730337;81;20176;-81
2022/02/08 12:32:34;;;;;;;;;;;;;;;7.75;66.71;100254.50;1730048;81;20629;-82
2022/02/08 12:35:20;;;;;;;;;;;;;;;8.16;65.56;100282.88;1787211;79;20627;-82
2022/02/08 12:54:10;;;;;;;;;;;;;;;7.63;65.98;100227.98;1786652;79;20170;-82
2022/02/08 12:56:56;;;;;;;;;;;;;;;7.73;65.99;100214.39;1789143;79;20363;-81
2022/02/08 12:59:08;;;;;;;;;;;;;;;7.76;66.07;100202.28;1765232;79;20128;-83
2022/02/08 13:16:42;;;;;;;;;;;;;;;7.65;68.23;100191.91;1794693;78;20222;-81
2022/02/08 14:01:50;;;;;;;;;;;;;;;6.37;87.70;100124.99;1781511;79;20176;-83
2022/02/08 14:14:54;;;;;;;;;;;;;;;6.28;89.20;100107.41;1780547;78;20132;-81
2022/02/08 14:22:55;;;;;;;;;;;;;;;6.79;87.41;100089.48;1781632;79;20201;-81
2022/02/08 14:25:44;;;;;;;;;;;;;;;6.98;86.27;100086.56;1782978;78;20174;-81
2022/02/08 14:30:41;;;;;;;;;;;;;;;6.72;87.59;100084.41;1783157;78;20149;-81
2022/02/08 14:35:53;;;;;;;;;;;;;;;6.58;88.41;100092.64;1752835;79;20138;-81
2022/02/08 15:07:57;;;;;;;;;;;;;;;6.61;90.14;100050.40;1787757;78;20142;-81
2022/02/08 15:10:01;;;;;;;;;;;;;;;6.76;90.10;100058.25;1783912;78;20639;-80
2022/02/08 15:12:31;;;;;;;;;;;;;;;6.80;89.93;100042.56;1779823;79;20629;-82
2022/02/08 15:15:04;;;;;;;;;;;;;;;6.46;91.55;100052.54;1784340;78;20175;-82
2022/02/08 15:17:25;;;;;;;;;;;;;;;6.44;91.80;100030.37;1786816;79;20148;-83
2022/02/08 15:19:51;;;;;;;;;;;;;;;6.56;91.95;100028.98;1785111;79;20179;-83
2022/02/08 15:22:17;;;;;;;;;;;;;;;6.30;93.25;100029.43;1783692;79;20248;-82
2022/02/08 15:24:43;;;;;;;;;;;;;;;6.54;92.87;100022.56;1781402;78;20194;-82
2022/02/08 15:27:11;;;;;;;;;;;;;;;6.58;92.42;100021.80;1780280;79;21124;-82
2022/02/08 15:29:36;;;;;;;;;;;;;;;6.53;93.10;100022.69;1781678;78;20187;-82
2022/02/08 15:32:03;;;;;;;;;;;;;;;6.51;93.45;100015.42;1785065;78;20136;-81
2022/02/08 15:34:29;;;;;;;;;;;;;;;6.43;94.02;100010.37;1784492;79;20198;-83
2022/02/08 15:36:55;;;;;;;;;;;;;;;6.36;94.47;100011.86;1783537;78;20934;-80
2022/02/08 15:39:21;;;;;;;;;;;;;;;6.31;95.06;100012.74;1780581;79;21219;-81
2022/02/08 15:41:47;;;;;;;;;;;;;;;6.55;94.24;100005.84;1781898;78;20114;-80
2022/02/08 15:44:18;;;;;;;;;;;;;;;6.56;93.86;100016.69;1785060;78;20269;-81
2022/02/08 15:46:42;;;;;;;;;;;;;;;6.54;94.89;100020.40;1745124;79;20179;-82
2022/02/08 15:49:07;;;;;;;;;;;;;;;6.32;96.36;100015.70;1778082;78;20299;-82
2022/02/08 15:51:44;;;;;;;;;;;;;;;6.30;96.21;100026.80;1793013;78;21166;-82
2022/02/08 15:54:18;;;;;;;;;;;;;;;6.52;96.44;100011.84;1781489;79;20114;-81
2022/02/08 16:07:09;;;;;;;;;;;;;;;6.69;97.19;100008.56;1784508;79;20928;-81
2022/02/08 16:09:51;;;;;;;;;;;;;;;6.56;97.79;99994.88;1789148;78;20167;-80
2022/02/08 16:17:55;;;;;;;;;;;;;;;6.57;99.14;99993.44;1779695;79;20629;-80
2022/02/08 16:47:01;;;;;;;;;;;;;;;6.69;100.00;99971.83;1786568;78;20191;-81
2022/02/08 16:49:21;;;;;;;;;;;;;;;6.77;100.00;99977.22;1781026;78;20149;-81
2022/02/08 16:59:28;;;;;;;;;;;;;;;7.01;100.00;99960.27;1785247;78;20171;-78
2022/02/08 17:01:52;;;;;;;;;;;;;;;6.99;100.00;99988.44;1787168;78;20080;-80
2022/02/08 17:04:18;;;;;;;;;;;;;;;6.69;100.00;99982.33;1781418;79;20195;-80
2022/02/08 17:06:43;;;;;;;;;;;;;;;7.20;100.00;99962.06;1784901;78;20467;-81
2022/02/08 17:09:14;;;;;;;;;;;;;;;6.99;100.00;99964.81;1750631;79;21223;-80
2022/02/08 17:11:52;;;;;;;;;;;;;;;7.04;100.00;99956.06;1742963;81;20551;-81
2022/02/08 17:14:28;;;;;;;;;;;;;;;7.03;100.00;99968.02;1738579;81;20178;-81
2022/02/08 17:47:00;;;;;;;;;;;;;;;7.31;100.00;99934.82;1739872;79;20128;-80
2022/02/08 17:49:19;;;;;;;;;;;;;;;7.34;100.00;99934.55;1725433;80;20181;-79
2022/02/08 17:51:46;;;;;;;;;;;;;;;7.57;100.00;99933.74;1737464;80;20886;-81
2022/02/08 17:54:12;;;;;;;;;;;;;;;7.49;100.00;99941.02;1735635;81;20190;-78
2022/02/08 17:56:38;;;;;;;;;;;;;;;7.41;100.00;99963.70;1734614;80;20737;-79
2022/02/08 17:59:03;;;;;;;;;;;;;;;7.54;100.00;99938.78;1719702;80;20143;-79
2022/02/08 18:01:29;;;;;;;;;;;;;;;7.73;100.00;99937.08;1720250;80;21791;-78
2022/02/08 18:03:55;;;;;;;;;;;;;;;7.80;100.00;99939.95;1739756;80;20309;-79
2022/02/08 18:06:20;;;;;;;;;;;;;;;7.72;100.00;99939.35;1738948;80;20209;-79
2022/02/08 18:08:46;;;;;;;;;;;;;;;7.80;100.00;99957.89;1749954;79;20170;-80
2022/02/08 18:11:11;;;;;;;;;;;;;;;7.78;100.00;99940.09;1755004;80;20199;-80
2022/02/08 18:13:41;;;;;;;;;;;;;;;7.72;100.00;99936.27;1753937;80;21036;-80
2022/02/08 18:16:05;;;;;;;;;;;;;;;7.73;100.00;99948.41;1754041;80;20097;-80
2022/02/08 18:18:36;;;;;;;;;;;;;;;8.04;100.00;99938.15;1744916;81;20218;-78
2022/02/08 18:21:08;;;;;;;;;;;;;;;8.08;100.00;99944.78;1746217;80;20205;-79
2022/02/08 18:50:13;;;;;;;;;;;;;;;7.96;100.00;99936.73;1756065;79;20150;-79
2022/02/08 19:09:47;;;;;;;;;;;;;;;8.77;100.00;99967.62;1774250;79;20131;-82
2022/02/08 19:13:07;;;;;;;;;;;;;;;8.66;100.00;99978.37;1781022;79;20155;-79
2022/02/08 19:17:34;;;;;;;;;;;;;;;8.73;100.00;99947.83;1783412;79;20192;-79
2022/02/08 19:22:11;;;;;;;;;;;;;;;8.80;100.00;99962.06;1774470;79;20552;-81
2022/02/08 19:24:37;;;;;;;;;;;;;;;8.85;100.00;99982.19;1771934;79;20210;-80
2022/02/08 19:27:06;;;;;;;;;;;;;;;8.75;100.00;99968.27;1779411;79;20164;-79
2022/02/08 19:29:37;;;;;;;;;;;;;;;8.86;100.00;99997.02;1777358;79;20195;-79
2022/02/08 19:32:01;;;;;;;;;;;;;;;9.20;99.57;99967.38;1780880;79;20188;-78
2022/02/08 19:34:27;;;;;;;;;;;;;;;8.83;100.00;100011.80;1781748;79;20727;-79
2022/02/08 19:36:57;;;;;;;;;;;;;;;9.08;99.95;99980.44;1786377;78;20232;-77
2022/02/08 19:39:20;;;;;;;;;;;;;;;9.10;99.44;99998.23;1789634;79;20210;-80
2022/02/08 19:41:45;;;;;;;;;;;;;;;9.47;97.87;99984.05;1784528;79;20997;-78
2022/02/08 19:44:11;;;;;;;;;;;;;;;9.24;98.90;100004.78;1786505;77;22087;-78
2022/02/08 19:46:37;;;;;;;;;;;;;;;9.34;98.45;100015.58;1784223;78;20134;-80
2022/02/08 19:49:03;;;;;;;;;;;;;;;9.15;99.05;100003.40;1783578;78;20532;-79
2022/02/08 19:51:29;;;;;;;;;;;;;;;9.47;97.53;100020.95;1787445;79;20740;-78
2022/02/08 19:53:56;;;;;;;;;;;;;;;9.15;99.27;100017.03;1780014;79;20134;-78
2022/02/08 19:56:37;;;;;;;;;;;;;;;9.26;98.29;100008.93;1785159;78;20643;-79
2022/02/08 19:58:52;;;;;;;;;;;;;;;9.19;98.16;100032.89;1783277;79;20532;-78
2022/02/08 20:01:25;;;;;;;;;;;;;;;9.44;96.92;100027.34;1781722;79;20184;-79
2022/02/08 20:03:54;;;;;;;;;;;;;;;9.37;97.39;100047.88;1782172;79;20159;-77